createdAt,value
2019-06-26T00:00:10.274Z,11.15
2019-06-26T00:02:41.317Z,11.57
2019-06-26T00:05:11.053Z,10.00
2019-06-26T00:07:40.361Z,11.00
2019-06-26T00:10:10.194Z,11.12
2019-06-26T00:12:39.535Z,10.15
2019-06-26T00:15:09.612Z,9.05
2019-06-26T00:17:38.918Z,10.82
2019-06-26T00:20:09.028Z,10.80
2019-06-26T00:22:38.338Z,10.48
2019-06-26T00:25:07.704Z,11.20
2019-06-26T00:27:37.003Z,11.00
2019-06-26T00:30:09.824Z,10.68
2019-06-26T00:32:40.243Z,10.98
2019-06-26T00:35:09.648Z,11.08
2019-06-26T00:37:38.970Z,10.32
2019-06-26T00:40:08.430Z,11.50
2019-06-26T00:42:37.816Z,11.35
2019-06-26T00:45:07.352Z,11.43
2019-06-26T00:47:36.669Z,11.83
2019-06-26T00:50:08.115Z,10.90
2019-06-26T00:52:37.425Z,11.78
2019-06-26T00:55:07.163Z,10.88
2019-06-26T00:57:37.627Z,11.38
2019-06-26T01:00:10.705Z,11.97
2019-06-26T01:02:40.076Z,11.68
2019-06-26T01:05:11.293Z,11.22
2019-06-26T01:07:42.256Z,11.05
2019-06-26T01:10:14.220Z,11.97
2019-06-26T01:12:43.615Z,12.05
2019-06-26T01:15:13.243Z,11.68
2019-06-26T01:17:43.500Z,12.25
2019-06-26T01:20:13.639Z,11.85
2019-06-26T01:22:42.936Z,12.07
2019-06-26T01:25:12.675Z,11.63
2019-06-26T01:27:42.189Z,11.60
2019-06-26T01:30:12.129Z,11.50
2019-06-26T01:32:41.439Z,12.60
2019-06-26T01:35:11.794Z,11.55
2019-06-26T01:37:41.095Z,12.10
2019-06-26T01:40:10.645Z,11.90
2019-06-26T01:42:39.966Z,12.05
2019-06-26T01:45:09.614Z,11.80
2019-06-26T01:47:38.975Z,11.08
2019-06-26T01:50:09.226Z,11.48
2019-06-26T01:52:38.525Z,11.18
2019-06-26T01:55:08.003Z,11.50
2019-06-26T01:57:37.312Z,11.68
2019-06-26T02:00:08.683Z,10.90
2019-06-26T02:02:38.951Z,11.83
2019-06-26T02:05:09.004Z,11.85
2019-06-26T02:07:38.294Z,11.40
2019-06-26T02:10:07.976Z,11.12
2019-06-26T02:12:38.386Z,10.63
2019-06-26T02:15:08.341Z,10.55
2019-06-26T02:17:37.640Z,11.43
2019-06-26T02:20:07.724Z,11.18
2019-06-26T02:22:37.064Z,11.50
2019-06-26T02:25:07.017Z,10.93
2019-06-26T02:27:36.472Z,11.18
2019-06-26T02:30:08.411Z,11.63
2019-06-26T02:32:37.709Z,11.85
2019-06-26T02:35:09.913Z,12.03
2019-06-26T02:37:38.724Z,11.00
2019-06-26T02:40:09.167Z,11.70
2019-06-26T02:42:39.476Z,10.93
2019-06-26T02:45:09.903Z,10.10
2019-06-26T02:47:39.196Z,11.78
2019-06-26T02:50:10.398Z,11.48
2019-06-26T02:52:40.821Z,11.75
2019-06-26T02:55:10.307Z,11.83
2019-06-26T02:57:39.604Z,11.08
2019-06-26T03:00:09.052Z,12.05
2019-06-26T03:02:38.444Z,12.43
2019-06-26T03:05:08.084Z,11.08
2019-06-26T03:07:37.388Z,12.98
2019-06-26T03:10:10.244Z,11.20
2019-06-26T03:12:39.569Z,12.75
2019-06-26T03:15:09.780Z,11.08
2019-06-26T03:17:54.244Z,12.07
2019-06-26T03:20:12.766Z,11.88
2019-06-26T03:22:42.062Z,11.93
2019-06-26T03:25:11.383Z,12.07
2019-06-26T03:27:46.448Z,11.93
2019-06-26T03:30:17.777Z,13.15
2019-06-26T03:32:47.083Z,11.68
2019-06-26T03:35:16.603Z,13.43
2019-06-26T03:37:46.935Z,13.72
2019-06-26T03:40:16.430Z,12.00
2019-06-26T03:42:45.864Z,12.43
2019-06-26T03:45:25.788Z,11.28
2019-06-26T03:47:47.230Z,12.35
2019-06-26T03:50:16.619Z,12.10
2019-06-26T03:52:47.837Z,12.65
2019-06-26T03:55:20.464Z,13.08
2019-06-26T03:57:49.763Z,11.03
2019-06-26T04:00:36.550Z,12.10
2019-06-26T04:03:05.832Z,11.70
2019-06-26T04:05:35.759Z,12.75
2019-06-26T04:08:05.388Z,12.80
2019-06-26T04:10:35.859Z,11.80
2019-06-26T04:13:06.235Z,12.23
2019-06-26T04:15:42.040Z,12.55
2019-06-26T04:18:06.617Z,12.00
2019-06-26T04:20:35.955Z,12.82
2019-06-26T04:23:05.302Z,11.12
2019-06-26T04:25:37.859Z,10.90
2019-06-26T04:28:06.538Z,12.28
2019-06-26T04:30:35.969Z,10.35
2019-06-26T04:33:05.417Z,10.65
2019-06-26T04:35:34.719Z,10.40
2019-06-26T04:38:04.114Z,10.25
2019-06-26T04:40:34.324Z,10.50
2019-06-26T04:43:07.140Z,10.58
2019-06-26T04:45:57.124Z,10.03
2019-06-26T04:48:22.352Z,9.60
2019-06-26T04:50:58.371Z,9.75
2019-06-26T04:53:34.124Z,10.82
2019-06-26T04:56:04.977Z,9.83
2019-06-26T04:58:34.264Z,10.65
2019-06-26T05:01:04.458Z,11.38
2019-06-26T05:03:34.660Z,11.20
2019-06-26T05:06:05.812Z,12.03
2019-06-26T05:08:35.132Z,12.37
2019-06-26T05:11:04.420Z,18.37
2019-06-26T05:13:35.796Z,18.23
2019-06-26T05:16:15.644Z,16.07
2019-06-26T05:18:42.103Z,18.45
2019-06-26T05:21:12.333Z,20.90
2019-06-26T05:23:43.611Z,21.02
2019-06-26T05:26:13.863Z,19.70
2019-06-26T05:28:49.539Z,21.65
2019-06-26T05:33:48.334Z,20.70
2019-06-26T05:36:17.689Z,24.02
2019-06-26T05:38:47.052Z,26.30
2019-06-26T05:41:19.302Z,26.85
2019-06-26T05:43:48.681Z,26.33
2019-06-26T05:46:30.618Z,24.07
2019-06-26T05:48:49.071Z,24.20
2019-06-26T05:51:18.376Z,23.15
2019-06-26T05:53:51.593Z,22.60
2019-06-26T05:56:20.991Z,20.43
2019-06-26T05:58:51.330Z,20.68
2019-06-26T06:01:21.838Z,20.43
2019-06-26T06:03:51.172Z,18.27
2019-06-26T06:06:21.397Z,18.05
2019-06-26T06:08:50.704Z,17.15
2019-06-26T06:11:20.062Z,16.62
2019-06-26T06:13:49.393Z,17.55
2019-06-26T06:16:18.785Z,16.10
2019-06-26T06:18:48.162Z,15.15
2019-06-26T06:21:17.464Z,16.00
2019-06-26T06:23:46.924Z,16.32
2019-06-26T06:26:17.188Z,15.43
2019-06-26T06:28:46.509Z,13.85
2019-06-26T06:31:15.818Z,14.50
2019-06-26T06:33:45.691Z,13.40
2019-06-26T06:36:15.039Z,13.80
2019-06-26T06:38:44.361Z,13.43
2019-06-26T06:41:13.780Z,14.55
2019-06-26T06:43:43.138Z,14.30
2019-06-26T06:46:12.516Z,13.65
2019-06-26T06:48:42.795Z,13.15
2019-06-26T06:51:12.100Z,13.62
2019-06-26T06:53:43.389Z,12.50
2019-06-26T06:56:12.722Z,12.28
2019-06-26T06:58:42.019Z,12.90
2019-06-26T07:01:11.328Z,11.65
2019-06-26T07:03:40.631Z,10.68
2019-06-26T07:06:09.949Z,10.90
2019-06-26T07:08:39.248Z,10.63
2019-06-26T07:11:08.646Z,9.80
2019-06-26T07:13:38.019Z,10.10
2019-06-26T07:16:07.323Z,10.10
2019-06-26T07:18:36.611Z,9.70
2019-06-26T07:21:05.910Z,9.88
2019-06-26T07:23:35.225Z,9.25
2019-06-26T07:26:05.582Z,8.43
2019-06-26T07:28:34.889Z,8.40
2019-06-26T07:31:04.256Z,8.45
2019-06-26T07:33:33.544Z,13.88
2019-06-26T07:36:02.849Z,9.08
2019-06-26T07:38:32.140Z,9.08
2019-06-26T07:41:01.454Z,8.53
2019-06-26T07:43:30.742Z,8.68
2019-06-26T07:46:00.106Z,8.58
2019-06-26T07:48:29.395Z,7.72
2019-06-26T07:50:58.687Z,8.05
2019-06-26T07:53:27.995Z,7.78
2019-06-26T07:55:57.302Z,8.33
2019-06-26T07:58:26.639Z,7.78
2019-06-26T08:00:55.959Z,7.30
2019-06-26T08:03:25.241Z,7.87
2019-06-26T08:05:54.533Z,7.97
2019-06-26T08:08:23.869Z,7.42
2019-06-26T08:10:53.228Z,8.33
2019-06-26T08:13:22.540Z,8.45
2019-06-26T08:15:51.839Z,8.23
2019-06-26T08:18:21.123Z,7.45
2019-06-26T08:21:10.604Z,8.45
2019-06-26T08:23:21.411Z,7.45
2019-06-26T08:25:50.710Z,7.95
2019-06-26T08:28:19.994Z,7.75
2019-06-26T08:30:49.287Z,7.37
2019-06-26T08:33:18.636Z,7.85
2019-06-26T08:35:47.919Z,7.80
2019-06-26T08:38:17.228Z,8.10
2019-06-26T08:40:46.526Z,8.13
2019-06-26T08:43:15.955Z,7.45
2019-06-26T08:45:46.340Z,7.40
2019-06-26T08:48:28.124Z,7.15
2019-06-26T08:50:46.886Z,7.50
2019-06-26T08:53:16.221Z,7.42
2019-06-26T08:55:45.491Z,8.73
2019-06-26T08:58:14.784Z,7.50
2019-06-26T09:00:44.072Z,7.15
2019-06-26T09:03:13.370Z,8.30
2019-06-26T09:05:47.988Z,8.38
2019-06-26T09:08:13.844Z,8.23
2019-06-26T09:10:45.077Z,7.60
2019-06-26T09:13:14.324Z,7.58
2019-06-26T09:15:44.564Z,8.95
2019-06-26T09:18:13.868Z,8.63
2019-06-26T09:20:43.296Z,8.03
2019-06-26T09:23:12.591Z,7.60
2019-06-26T09:25:41.893Z,8.35
2019-06-26T09:28:11.253Z,7.20
2019-06-26T09:30:40.688Z,6.60
2019-06-26T09:33:10.090Z,6.62
2019-06-26T09:35:39.443Z,7.00
2019-06-26T09:38:08.743Z,6.78
2019-06-26T09:40:38.023Z,6.92
2019-06-26T09:43:08.301Z,6.58
2019-06-26T09:45:37.579Z,6.62
2019-06-26T09:48:06.877Z,5.83
2019-06-26T09:50:36.155Z,6.42
2019-06-26T09:53:05.768Z,6.03
2019-06-26T09:55:35.125Z,6.55
2019-06-26T09:58:04.503Z,6.12
2019-06-26T10:00:33.871Z,5.50
2019-06-26T10:03:03.179Z,6.33
2019-06-26T10:05:32.459Z,6.03
2019-06-26T10:08:01.757Z,6.40
2019-06-26T10:10:31.046Z,5.92
2019-06-26T10:13:00.335Z,6.00
2019-06-26T10:15:29.636Z,6.22
2019-06-26T10:17:59.090Z,6.65
2019-06-26T10:20:28.417Z,6.15
2019-06-26T10:22:57.734Z,7.00
2019-06-26T10:25:27.036Z,5.53
2019-06-26T10:27:56.374Z,4.95
2019-06-26T10:30:25.735Z,5.60
2019-06-26T10:32:55.031Z,5.33
2019-06-26T10:35:24.351Z,5.83
2019-06-26T10:37:53.650Z,5.35
2019-06-26T10:40:22.944Z,5.55
2019-06-26T10:42:52.260Z,5.40
2019-06-26T10:45:21.698Z,5.62
2019-06-26T10:47:51.052Z,5.47
2019-06-26T10:50:20.531Z,5.08
2019-06-26T10:52:49.812Z,5.45
2019-06-26T10:55:19.356Z,5.28
2019-06-26T10:57:48.771Z,5.70
2019-06-26T11:00:18.633Z,5.35
2019-06-26T11:02:47.975Z,5.90
2019-06-26T11:05:17.742Z,6.12
2019-06-26T11:07:47.030Z,5.47
2019-06-26T11:10:16.592Z,5.25
2019-06-26T11:12:48.939Z,5.83
2019-06-26T11:15:18.369Z,5.65
2019-06-26T11:17:47.726Z,6.15
2019-06-26T11:20:17.259Z,5.78
2019-06-26T11:22:46.539Z,5.70
2019-06-26T11:25:18.986Z,5.87
2019-06-26T11:27:48.384Z,5.70
2019-06-26T11:30:20.003Z,5.47
2019-06-26T11:32:49.296Z,5.85
2019-06-26T11:35:19.647Z,4.85
2019-06-26T11:37:48.957Z,5.40
2019-06-26T11:40:18.673Z,5.62
2019-06-26T11:42:47.946Z,5.72
2019-06-26T11:45:17.844Z,5.92
2019-06-26T11:47:47.130Z,6.20
2019-06-26T11:50:17.088Z,5.97
2019-06-26T11:52:46.371Z,5.97
2019-06-26T11:55:16.609Z,5.85
2019-06-26T11:57:46.061Z,5.60
2019-06-26T12:00:21.119Z,5.80
2019-06-26T12:02:50.411Z,5.53
2019-06-26T12:05:20.035Z,5.92
2019-06-26T12:07:50.354Z,5.78
2019-06-26T12:10:20.946Z,6.10
2019-06-26T12:12:50.351Z,5.83
2019-06-26T12:15:21.594Z,6.70
2019-06-26T12:17:51.084Z,5.58
2019-06-26T12:20:21.487Z,5.67
2019-06-26T12:22:50.831Z,5.67
2019-06-26T12:25:20.155Z,5.75
2019-06-26T12:27:49.445Z,5.97
2019-06-26T12:30:19.385Z,5.80
2019-06-26T12:33:02.176Z,5.92
2019-06-26T12:35:19.763Z,5.50
2019-06-26T12:37:49.052Z,5.85
2019-06-26T12:40:18.700Z,5.67
2019-06-26T12:42:47.989Z,5.53
2019-06-26T12:45:17.627Z,6.10
2019-06-26T12:47:46.919Z,6.12
2019-06-26T12:50:34.174Z,5.95
2019-06-26T12:52:49.232Z,5.22
2019-06-26T12:55:18.592Z,5.62
2019-06-26T12:57:47.893Z,5.70
2019-06-26T13:00:17.830Z,5.78
2019-06-26T13:02:47.125Z,6.28
2019-06-26T13:05:16.674Z,5.40
2019-06-26T13:07:45.980Z,6.10
2019-06-26T13:10:16.981Z,5.40
2019-06-26T13:12:47.417Z,6.05
2019-06-26T13:15:44.960Z,5.85
2019-06-26T13:18:14.274Z,5.97
2019-06-26T13:20:52.567Z,6.35
2019-06-26T13:23:17.578Z,6.50
2019-06-26T13:25:46.926Z,5.87
2019-06-26T13:28:22.706Z,6.03
2019-06-26T13:30:53.498Z,6.37
2019-06-26T13:33:43.758Z,5.55
2019-06-26T13:36:16.838Z,6.28
2019-06-26T13:38:47.128Z,5.90
2019-06-26T13:41:16.458Z,5.67
2019-06-26T13:43:47.716Z,5.87
2019-06-26T13:46:17.002Z,5.58
2019-06-26T13:49:10.492Z,5.87
2019-06-26T13:51:39.788Z,6.28
2019-06-26T13:54:09.091Z,6.12
2019-06-26T13:56:39.365Z,6.37
2019-06-26T13:59:08.660Z,5.97
2019-06-26T14:01:37.952Z,6.50
2019-06-26T14:04:07.340Z,6.53
2019-06-26T14:06:36.719Z,6.47
2019-06-26T14:09:07.512Z,5.45
2019-06-26T14:11:36.801Z,5.83
2019-06-26T14:14:06.101Z,6.00
2019-06-26T14:16:35.394Z,5.83
2019-06-26T14:19:04.767Z,6.42
2019-06-26T14:21:34.058Z,6.30
2019-06-26T14:24:03.426Z,6.10
2019-06-26T14:26:32.711Z,6.05
2019-06-26T14:29:02.038Z,6.33
2019-06-26T14:31:31.313Z,6.35
2019-06-26T14:34:00.641Z,6.97
2019-06-26T14:36:30.931Z,6.05
2019-06-26T14:39:00.305Z,6.28
2019-06-26T14:41:29.615Z,6.00
2019-06-26T14:43:58.904Z,6.15
2019-06-26T14:46:28.202Z,5.97
2019-06-26T14:48:58.476Z,5.95
2019-06-26T14:51:41.886Z,5.58
2019-06-26T14:53:58.793Z,6.33
2019-06-26T14:56:28.084Z,5.72
2019-06-26T14:58:57.378Z,6.05
2019-06-26T15:01:28.633Z,6.12
2019-06-26T15:03:57.996Z,6.00
2019-06-26T15:06:27.369Z,6.03
2019-06-26T15:08:56.750Z,5.50
2019-06-26T15:11:26.077Z,5.78
2019-06-26T15:13:55.392Z,5.97
2019-06-26T15:16:24.748Z,6.12
2019-06-26T15:18:54.039Z,6.10
2019-06-26T15:21:23.333Z,6.25
2019-06-26T15:23:52.639Z,6.42
2019-06-26T15:26:21.956Z,6.20
2019-06-26T15:28:51.338Z,6.08
2019-06-26T15:31:20.637Z,6.65
2019-06-26T15:33:49.941Z,6.30
2019-06-26T15:36:19.329Z,6.00
2019-06-26T15:38:48.630Z,6.33
2019-06-26T15:41:18.009Z,6.95
2019-06-26T15:43:47.315Z,6.65
2019-06-26T15:46:16.656Z,6.03
2019-06-26T15:48:50.188Z,6.37
2019-06-26T15:51:19.162Z,6.12
2019-06-26T15:53:48.564Z,7.33
2019-06-26T15:56:17.869Z,5.92
2019-06-26T15:58:47.154Z,6.50
2019-06-26T16:01:29.922Z,6.17
2019-06-26T16:03:59.299Z,6.62
2019-06-26T16:06:28.612Z,6.83
2019-06-26T16:08:58.003Z,6.17
2019-06-26T16:11:27.314Z,6.75
2019-06-26T16:13:56.675Z,6.42
2019-06-26T16:16:26.042Z,6.62
2019-06-26T16:19:00.137Z,6.42
2019-06-26T16:21:29.589Z,6.25
2019-06-26T16:23:58.923Z,6.35
2019-06-26T16:26:28.272Z,6.37
2019-06-26T16:28:57.583Z,6.50
2019-06-26T16:31:27.998Z,6.80
2019-06-26T16:33:57.464Z,6.60
2019-06-26T16:36:26.761Z,6.35
2019-06-26T16:38:56.060Z,6.78
2019-06-26T16:41:25.372Z,6.40
2019-06-26T16:43:54.748Z,6.50
2019-06-26T16:46:24.070Z,6.40
2019-06-26T16:48:53.385Z,6.75
2019-06-26T16:51:22.801Z,5.92
2019-06-26T16:53:52.162Z,5.87
2019-06-26T16:56:21.480Z,8.10
2019-06-26T16:58:50.902Z,6.83
2019-06-26T17:01:20.215Z,6.40
2019-06-26T17:03:49.510Z,6.03
2019-06-26T17:06:18.865Z,6.40
2019-06-26T17:08:48.166Z,6.20
2019-06-26T17:11:17.505Z,5.92
2019-06-26T17:13:46.817Z,7.08
2019-06-26T17:16:16.156Z,6.28
2019-06-26T17:18:45.450Z,8.15
2019-06-26T17:21:14.767Z,7.22
2019-06-26T17:23:44.075Z,8.05
2019-06-26T17:26:13.390Z,7.97
2019-06-26T17:28:42.701Z,7.90
2019-06-26T17:31:12.060Z,7.40
2019-06-26T17:33:41.458Z,7.40
2019-06-26T17:36:10.812Z,6.97
2019-06-26T17:38:40.553Z,7.25
2019-06-26T17:41:09.934Z,6.47
2019-06-26T17:43:39.255Z,5.90
2019-06-26T17:46:08.621Z,6.33
2019-06-26T17:48:38.037Z,6.45
2019-06-26T17:51:07.363Z,6.17
2019-06-26T17:53:36.651Z,5.90
2019-06-26T17:56:06.041Z,6.35
2019-06-26T17:58:35.342Z,6.60
2019-06-26T18:01:04.681Z,6.47
2019-06-26T18:03:34.008Z,6.37
2019-06-26T18:06:03.364Z,6.42
2019-06-26T18:08:32.742Z,6.60
2019-06-26T18:11:02.095Z,7.00
2019-06-26T18:13:31.454Z,6.55
2019-06-26T18:16:00.830Z,6.67
2019-06-26T18:18:30.162Z,6.10
2019-06-26T18:20:59.509Z,6.40
2019-06-26T18:23:37.955Z,6.45
2019-06-26T18:26:12.246Z,6.10
2019-06-26T18:28:30.873Z,6.50
2019-06-26T18:31:00.250Z,6.70
2019-06-26T18:33:29.546Z,6.72
2019-06-26T18:35:58.856Z,6.30
2019-06-26T18:38:28.175Z,6.72
2019-06-26T18:40:57.483Z,6.90
2019-06-26T18:43:26.825Z,6.28
2019-06-26T18:45:56.123Z,6.95
2019-06-26T18:48:25.460Z,6.87
2019-06-26T18:50:54.750Z,6.72
2019-06-26T18:53:24.139Z,7.53
2019-06-26T18:55:53.613Z,7.58
2019-06-26T18:58:22.959Z,7.20
2019-06-26T19:00:52.269Z,7.65
2019-06-26T19:03:21.603Z,7.60
2019-06-26T19:05:50.972Z,7.75
2019-06-26T19:08:20.275Z,7.53
2019-06-26T19:10:49.591Z,8.43
2019-06-26T19:13:20.442Z,8.38
2019-06-26T19:15:55.365Z,8.28
2019-06-26T19:18:26.345Z,7.67
2019-06-26T19:20:55.639Z,8.65
2019-06-26T19:23:24.990Z,8.40
2019-06-26T19:25:54.282Z,8.18
2019-06-26T19:28:23.599Z,9.10
2019-06-26T19:30:52.932Z,8.88
2019-06-26T19:33:22.235Z,8.70
2019-06-26T19:35:51.883Z,9.03
2019-06-26T19:38:21.354Z,8.53
2019-06-26T19:40:50.742Z,9.10
2019-06-26T19:43:32.380Z,8.30
2019-06-26T19:46:01.678Z,8.78
2019-06-26T19:48:31.004Z,9.38
2019-06-26T19:51:00.279Z,9.33
2019-06-26T19:53:31.010Z,9.30
2019-06-26T19:56:00.284Z,8.60
2019-06-26T19:58:29.718Z,9.30
2019-06-26T20:00:59.016Z,9.15
2019-06-26T20:03:28.339Z,9.40
2019-06-26T20:05:57.639Z,9.58
2019-06-26T20:08:27.020Z,9.40
2019-06-26T20:10:56.344Z,9.90
2019-06-26T20:13:25.730Z,9.43
2019-06-26T20:16:10.266Z,9.33
2019-06-26T20:18:41.255Z,10.00
2019-06-26T20:21:10.539Z,9.80
2019-06-26T20:23:40.806Z,10.50
2019-06-26T20:26:10.108Z,10.25
2019-06-26T20:28:40.965Z,10.00
2019-06-26T20:31:10.275Z,10.68
2019-06-26T20:33:39.596Z,10.55
2019-06-26T20:36:08.894Z,9.90
2019-06-26T20:38:38.232Z,10.43
2019-06-26T20:41:07.635Z,10.68
2019-06-26T20:43:37.038Z,10.25
2019-06-26T20:46:06.434Z,10.43
2019-06-26T20:48:35.816Z,11.97
2019-06-26T20:51:05.146Z,11.20
2019-06-26T20:53:34.468Z,10.93
2019-06-26T20:56:05.578Z,9.88
2019-06-26T20:58:34.764Z,11.38
2019-06-26T21:01:04.151Z,12.00
2019-06-26T21:03:33.480Z,11.38
2019-06-26T21:06:02.955Z,11.50
2019-06-26T21:08:32.261Z,11.65
2019-06-26T21:11:01.591Z,11.83
2019-06-26T21:13:30.897Z,12.07
2019-06-26T21:16:00.223Z,11.38
2019-06-26T21:18:29.596Z,11.93
2019-06-26T21:20:58.905Z,11.60
2019-06-26T21:23:28.204Z,11.45
2019-06-26T21:25:57.568Z,11.20
2019-06-26T21:28:26.878Z,12.00
2019-06-26T21:30:56.206Z,11.03
2019-06-26T21:33:25.496Z,12.00
2019-06-26T21:35:55.950Z,11.53
2019-06-26T21:38:25.269Z,11.50
2019-06-26T21:40:54.572Z,10.43
2019-06-26T21:43:23.897Z,10.70
2019-06-26T21:45:53.273Z,10.90
2019-06-26T21:48:22.579Z,10.35
2019-06-26T21:50:51.920Z,11.10
2019-06-26T21:53:21.279Z,12.15
2019-06-26T21:56:09.066Z,11.73
2019-06-26T21:58:56.761Z,12.45
2019-06-26T22:01:43.939Z,12.43
2019-06-26T22:04:31.213Z,11.97
2019-06-26T22:07:14.737Z,12.70
2019-06-26T22:09:54.551Z,11.90
2019-06-26T22:12:24.012Z,12.23
2019-06-26T22:14:53.382Z,11.40
2019-06-26T22:17:22.692Z,11.08
2019-06-26T22:19:52.027Z,12.53
2019-06-26T22:22:21.339Z,13.28
2019-06-26T22:24:50.699Z,12.82
2019-06-26T22:27:20.051Z,12.82
2019-06-26T22:29:49.466Z,12.90
2019-06-26T22:32:18.799Z,12.65
2019-06-26T22:34:48.311Z,11.97
2019-06-26T22:37:18.666Z,12.33
2019-06-26T22:39:47.981Z,12.15
2019-06-26T22:42:17.308Z,12.70
2019-06-26T22:44:46.656Z,12.58
2019-06-26T22:47:16.042Z,12.78
2019-06-26T22:49:45.371Z,12.78
2019-06-26T22:52:14.695Z,13.18
2019-06-26T22:54:44.007Z,13.15
2019-06-26T22:57:13.336Z,13.90
2019-06-26T22:59:42.649Z,13.78
2019-06-26T23:02:11.980Z,13.62
2019-06-26T23:04:41.363Z,12.78
2019-06-26T23:07:11.761Z,11.93
2019-06-26T23:09:41.146Z,12.73
2019-06-26T23:12:10.611Z,12.55
2019-06-26T23:14:39.921Z,11.90
2019-06-26T23:17:09.272Z,13.15
2019-06-26T23:19:38.601Z,12.43
2019-06-26T23:22:07.999Z,13.05
2019-06-26T23:24:37.314Z,11.83
2019-06-26T23:27:06.755Z,12.53
2019-06-26T23:29:36.139Z,12.75
2019-06-26T23:32:05.481Z,13.80
2019-06-26T23:34:34.784Z,13.68
2019-06-26T23:37:04.142Z,14.87
2019-06-26T23:39:33.459Z,14.05
2019-06-26T23:42:03.125Z,16.12
2019-06-26T23:44:32.439Z,15.58
2019-06-26T23:47:01.835Z,15.30
2019-06-26T23:49:31.164Z,15.50
2019-06-26T23:52:00.885Z,14.80
2019-06-26T23:54:30.262Z,13.62
2019-06-26T23:56:59.641Z,14.73
2019-06-26T23:59:29.064Z,15.68
